createdAt,value
2022-09-14T00:01:37.326Z,96056.27
2022-09-14T00:04:16.412Z,96058.02
2022-09-14T00:06:45.036Z,96056.27
2022-09-14T00:09:15.191Z,96053.02
2022-09-14T00:11:43.413Z,96052.08
2022-09-14T00:14:11.508Z,96053.37
2022-09-14T00:16:40.810Z,96056.29
2022-09-14T00:19:19.110Z,96057.33
2022-09-14T00:21:50.532Z,96059.23
2022-09-14T00:24:18.688Z,96057.08
2022-09-14T00:26:46.983Z,96057.30
2022-09-14T00:29:15.199Z,96058.55
2022-09-14T00:31:43.552Z,96054.27
2022-09-14T00:34:13.762Z,96057.39
2022-09-14T00:36:43.202Z,96055.27
2022-09-14T00:39:12.288Z,96052.48
2022-09-14T00:41:42.314Z,96046.66
2022-09-14T00:44:10.557Z,96043.38
2022-09-14T00:46:43.755Z,96037.08
2022-09-14T00:49:14.046Z,96030.80
2022-09-14T00:51:46.499Z,96024.33
2022-09-14T00:54:14.812Z,96023.26
2022-09-14T00:56:43.041Z,96023.66
2022-09-14T00:59:14.721Z,96026.51
2022-09-14T01:01:43.322Z,96034.48
2022-09-14T01:04:11.947Z,96030.95
2022-09-14T01:06:52.430Z,96023.87
2022-09-14T01:09:33.025Z,96015.14
2022-09-14T01:12:24.519Z,96024.23
2022-09-14T01:15:11.601Z,96022.27
2022-09-14T01:17:53.441Z,96024.09
2022-09-14T01:20:27.202Z,96021.26
2022-09-14T01:23:24.893Z,96010.46
2022-09-14T01:26:07.306Z,96008.90
2022-09-14T01:28:47.668Z,96007.36
2022-09-14T01:31:26.602Z,96009.90
2022-09-14T01:34:21.161Z,96013.85
2022-09-14T01:36:52.225Z,96022.59
2022-09-14T01:39:22.087Z,96017.04
2022-09-14T01:41:51.677Z,96016.33
2022-09-14T01:44:20.086Z,96008.45
2022-09-14T01:46:50.846Z,96008.62
2022-09-14T01:49:22.305Z,96011.98
2022-09-14T01:51:54.274Z,96009.92
2022-09-14T01:54:22.929Z,96003.05
2022-09-14T01:57:00.913Z,96005.70
2022-09-14T01:59:32.137Z,96001.85
2022-09-14T02:02:03.228Z,96007.70
2022-09-14T02:04:37.753Z,96009.98
2022-09-14T02:07:06.057Z,96006.36
2022-09-14T02:09:34.286Z,96010.40
2022-09-14T02:12:02.645Z,96009.27
2022-09-14T02:14:31.285Z,96010.94
2022-09-14T02:16:59.892Z,96009.17
2022-09-14T02:19:31.525Z,96008.90
2022-09-14T02:21:59.900Z,96009.75
2022-09-14T02:24:28.575Z,96013.02
2022-09-14T02:26:58.421Z,96009.29
2022-09-14T02:29:26.667Z,96015.30
2022-09-14T02:32:01.304Z,96014.45
2022-09-14T02:34:38.801Z,96013.69
2022-09-14T02:37:06.961Z,96011.94
2022-09-14T02:39:53.642Z,96017.10
2022-09-14T02:42:35.122Z,96010.89
2022-09-14T02:45:03.669Z,96010.28
2022-09-14T02:47:50.438Z,96007.02
2022-09-14T02:50:30.950Z,96004.11
2022-09-14T02:53:02.170Z,96005.08
2022-09-14T02:55:34.985Z,96008.00
2022-09-14T02:58:07.688Z,96010.99
2022-09-14T03:00:40.572Z,96007.21
2022-09-14T03:03:10.459Z,96006.75
2022-09-14T03:05:39.149Z,96006.73
2022-09-14T03:08:07.947Z,96001.68
2022-09-14T03:10:36.314Z,96003.14
2022-09-14T03:13:04.540Z,96002.94
2022-09-14T03:15:32.773Z,95994.65
2022-09-14T03:18:00.993Z,95988.29
2022-09-14T03:20:29.970Z,95988.63
2022-09-14T03:23:01.992Z,95991.82
2022-09-14T03:25:30.177Z,95988.77
2022-09-14T03:27:59.373Z,95994.18
2022-09-14T03:30:28.267Z,95993.74
2022-09-14T03:32:58.105Z,95990.98
2022-09-14T03:35:27.947Z,95987.88
2022-09-14T03:37:56.163Z,95985.92
2022-09-14T03:40:24.965Z,95988.88
2022-09-14T03:42:53.359Z,95985.88
2022-09-14T03:45:22.085Z,95982.88
2022-09-14T03:47:51.049Z,95983.25
2022-09-14T03:50:19.902Z,95980.71
2022-09-14T03:52:48.494Z,95984.69
2022-09-14T03:55:16.882Z,95980.98
2022-09-14T03:57:45.036Z,95982.85
2022-09-14T04:00:13.365Z,95990.40
2022-09-14T04:02:41.651Z,95988.45
2022-09-14T04:05:10.583Z,95995.30
2022-09-14T04:07:38.801Z,95996.35
2022-09-14T04:10:07.468Z,95996.41
2022-09-14T04:12:36.534Z,96001.09
2022-09-14T04:15:05.887Z,96004.15
2022-09-14T04:17:34.684Z,96009.77
2022-09-14T04:20:03.472Z,96005.23
2022-09-14T04:22:31.731Z,96002.59
2022-09-14T04:25:00.034Z,96003.60
2022-09-14T04:27:28.315Z,96001.55
2022-09-14T04:29:56.536Z,96006.67
2022-09-14T04:32:24.805Z,96005.83
2022-09-14T04:34:53.004Z,96008.98
2022-09-14T04:37:21.209Z,96008.95
2022-09-14T04:39:49.504Z,96010.38
2022-09-14T04:42:17.754Z,96005.17
2022-09-14T04:44:45.952Z,96003.76
2022-09-14T04:47:14.167Z,96009.48
2022-09-14T04:49:42.482Z,96008.21
2022-09-14T04:52:10.930Z,96013.95
2022-09-14T04:54:39.213Z,96021.88
2022-09-14T04:57:07.451Z,96019.80
2022-09-14T04:59:35.689Z,96021.02
2022-09-14T05:02:04.075Z,96015.73
2022-09-14T05:04:32.743Z,96017.89
2022-09-14T05:07:00.952Z,96013.52
2022-09-14T05:09:29.119Z,96016.98
2022-09-14T05:11:57.680Z,96024.96
2022-09-14T05:14:25.847Z,96026.23
2022-09-14T05:16:54.557Z,96034.48
2022-09-14T05:19:22.799Z,96031.39
2022-09-14T05:21:51.045Z,96030.08
2022-09-14T05:24:19.371Z,96026.15
2022-09-14T05:26:48.068Z,96032.70
2022-09-14T05:29:18.008Z,96036.92
2022-09-14T05:31:46.553Z,96032.30
2022-09-14T05:34:16.569Z,96030.45
2022-09-14T05:36:44.866Z,96026.98
2022-09-14T05:39:19.758Z,96023.32
2022-09-14T05:41:50.934Z,96028.95
2022-09-14T05:44:19.195Z,96020.47
2022-09-14T05:46:47.484Z,96018.80
2022-09-14T05:49:15.776Z,96013.45
2022-09-14T05:51:44.017Z,96010.80
2022-09-14T05:54:12.331Z,96013.66
2022-09-14T05:56:40.597Z,96010.71
2022-09-14T05:59:08.885Z,96009.86
2022-09-14T06:01:37.167Z,96015.36
2022-09-14T06:04:05.428Z,96015.30
2022-09-14T06:06:34.062Z,96014.33
2022-09-14T06:09:02.514Z,96014.14
2022-09-14T06:11:33.042Z,96008.78
2022-09-14T06:14:01.470Z,96004.55
2022-09-14T06:16:29.836Z,96004.27
2022-09-14T06:18:58.867Z,96008.28
2022-09-14T06:21:32.018Z,96007.27
2022-09-14T06:24:00.924Z,96005.28
2022-09-14T06:26:29.349Z,96003.30
2022-09-14T06:28:58.007Z,96000.48
2022-09-14T06:31:26.248Z,95998.60
2022-09-14T06:33:54.652Z,95992.73
2022-09-14T06:36:24.332Z,95993.81
2022-09-14T06:38:53.077Z,96001.83
2022-09-14T06:41:23.096Z,96006.98
2022-09-14T06:43:52.382Z,96011.41
2022-09-14T06:46:22.133Z,96015.91
2022-09-14T06:48:52.400Z,96016.14
2022-09-14T06:51:22.547Z,96021.71
2022-09-14T06:53:51.363Z,96022.91
2022-09-14T06:56:20.025Z,96024.42
2022-09-14T06:58:48.440Z,96021.23
2022-09-14T07:01:17.596Z,96025.66
2022-09-14T07:03:47.320Z,96031.53
2022-09-14T07:06:21.253Z,96026.81
2022-09-14T07:08:50.338Z,96027.30
2022-09-14T07:11:20.133Z,96029.21
2022-09-14T07:13:48.745Z,96025.97
2022-09-14T07:16:17.213Z,96024.46
2022-09-14T07:18:45.513Z,96024.55
2022-09-14T07:21:15.333Z,96030.52
2022-09-14T07:23:44.720Z,96030.42
2022-09-14T07:26:15.729Z,96026.20
2022-09-14T07:28:45.029Z,96024.39
2022-09-14T07:31:19.001Z,96026.87
2022-09-14T07:33:47.372Z,96022.78
2022-09-14T07:36:15.718Z,96017.13
2022-09-14T07:38:52.973Z,96005.16
2022-09-14T07:41:22.921Z,96008.86
2022-09-14T07:44:01.001Z,96006.63
2022-09-14T07:46:30.874Z,96004.96
2022-09-14T07:49:00.486Z,96006.77
2022-09-14T07:51:29.537Z,96007.48
2022-09-14T07:53:59.874Z,95998.66
2022-09-14T07:56:28.369Z,95997.05
2022-09-14T07:59:17.160Z,95995.34
2022-09-14T08:01:47.551Z,95998.10
2022-09-14T08:04:15.769Z,96003.79
2022-09-14T08:06:44.016Z,96002.64
2022-09-14T08:09:12.278Z,95997.17
2022-09-14T08:11:40.470Z,95987.33
2022-09-14T08:14:14.337Z,95988.77
2022-09-14T08:16:42.593Z,95995.71
2022-09-14T08:19:18.460Z,95998.13
2022-09-14T08:21:47.727Z,96001.73
2022-09-14T08:24:18.030Z,96002.19
2022-09-14T08:26:46.748Z,95997.55
2022-09-14T08:29:16.266Z,96000.58
2022-09-14T08:31:46.066Z,95995.19
2022-09-14T08:34:15.361Z,96002.05
2022-09-14T08:36:44.342Z,95997.55
2022-09-14T08:39:14.444Z,95993.16
2022-09-14T08:41:43.411Z,95989.34
2022-09-14T08:44:11.540Z,95979.89
2022-09-14T08:46:44.078Z,95977.30
2022-09-14T08:49:20.961Z,95973.13
2022-09-14T08:51:51.174Z,95979.79
2022-09-14T08:54:19.454Z,95976.27
2022-09-14T08:56:51.733Z,95971.11
2022-09-14T08:59:19.905Z,95974.31
2022-09-14T09:01:57.120Z,95981.41
2022-09-14T09:04:32.537Z,95973.54
2022-09-14T09:07:13.311Z,95966.40
2022-09-14T09:09:41.465Z,95958.04
2022-09-14T09:12:13.839Z,95953.63
2022-09-14T09:14:57.197Z,95954.29
2022-09-14T09:17:26.367Z,95951.31
2022-09-14T09:20:15.937Z,95951.42
2022-09-14T09:22:48.067Z,95953.69
2022-09-14T09:25:19.825Z,95955.40
2022-09-14T09:27:47.974Z,95951.16
2022-09-14T09:30:16.634Z,95950.33
2022-09-14T09:32:45.176Z,95951.09
2022-09-14T09:35:25.081Z,95951.63
2022-09-14T09:37:59.668Z,95951.26
2022-09-14T09:40:36.834Z,95951.97
2022-09-14T09:43:06.772Z,95947.98
2022-09-14T09:45:47.595Z,95944.04
2022-09-14T09:48:17.891Z,95933.56
2022-09-14T09:50:59.225Z,95931.80
2022-09-14T09:53:27.755Z,95936.46
2022-09-14T09:55:56.755Z,95939.48
2022-09-14T09:58:29.839Z,95936.48
2022-09-14T10:01:00.026Z,95939.67
2022-09-14T10:03:30.280Z,95933.84
2022-09-14T10:06:10.391Z,95943.08
2022-09-14T10:08:46.891Z,95942.00
2022-09-14T10:11:45.442Z,95942.00
2022-09-14T10:14:33.500Z,95948.67
2022-09-14T10:17:06.607Z,95949.89
2022-09-14T10:19:34.907Z,95946.96
2022-09-14T10:22:06.283Z,95946.11
2022-09-14T10:24:36.357Z,95944.11
2022-09-14T10:27:24.744Z,95943.22
2022-09-14T10:29:54.986Z,95946.94
2022-09-14T10:32:25.750Z,95946.01
2022-09-14T10:34:54.000Z,95948.25
2022-09-14T10:37:29.813Z,95949.79
2022-09-14T10:40:08.070Z,95944.46
2022-09-14T10:42:42.953Z,95937.04
2022-09-14T10:45:19.143Z,95926.89
2022-09-14T10:48:13.734Z,95919.14
2022-09-14T10:50:42.628Z,95915.52
2022-09-14T10:53:28.903Z,95910.77
2022-09-14T10:56:04.155Z,95906.96
2022-09-14T10:58:44.638Z,95906.98
2022-09-14T11:01:16.633Z,95912.16
2022-09-14T11:03:46.199Z,95913.44
2022-09-14T11:06:33.424Z,95908.16
2022-09-14T11:09:31.200Z,95903.09
2022-09-14T11:11:59.698Z,95912.48
2022-09-14T11:14:43.400Z,95909.95
2022-09-14T11:17:30.619Z,95911.71
2022-09-14T11:20:16.142Z,95909.88
2022-09-14T11:23:03.284Z,95906.02
2022-09-14T11:25:41.031Z,95906.16
2022-09-14T11:28:12.189Z,95909.02
2022-09-14T11:30:44.168Z,95905.39
2022-09-14T11:33:19.400Z,95903.84
2022-09-14T11:35:51.239Z,95909.21
2022-09-14T11:38:26.580Z,95907.48
2022-09-14T11:40:54.730Z,95903.70
2022-09-14T11:43:22.925Z,95894.48
2022-09-14T11:45:53.133Z,95898.73
2022-09-14T11:48:43.855Z,95886.77
2022-09-14T11:51:15.636Z,95892.52
2022-09-14T11:53:44.321Z,95898.45
2022-09-14T11:56:24.666Z,95897.54
2022-09-14T11:58:58.020Z,95902.91
2022-09-14T12:01:29.410Z,95908.05
2022-09-14T12:03:59.951Z,95904.70
2022-09-14T12:06:31.309Z,95903.28
2022-09-14T12:09:19.404Z,95901.66
2022-09-14T12:12:00.991Z,95907.66
2022-09-14T12:14:34.567Z,95910.34
2022-09-14T12:17:17.319Z,95910.94
2022-09-14T12:19:58.403Z,95915.67
2022-09-14T12:22:35.072Z,95914.44
2022-09-14T12:25:05.914Z,95915.45
2022-09-14T12:27:36.845Z,95919.05
2022-09-14T12:30:24.332Z,95922.38
2022-09-14T12:32:52.670Z,95927.61
2022-09-14T12:35:36.302Z,95924.22
2022-09-14T12:38:23.436Z,95923.38
2022-09-14T12:40:51.625Z,95920.80
2022-09-14T12:43:35.182Z,95921.09
2022-09-14T12:46:09.728Z,95920.85
2022-09-14T12:48:47.495Z,95914.46
2022-09-14T12:51:32.988Z,95912.74
2022-09-14T12:54:16.733Z,95910.36
2022-09-14T12:56:54.222Z,95907.50
2022-09-14T12:59:28.513Z,95905.80
2022-09-14T13:02:12.496Z,95907.19
2022-09-14T13:04:42.383Z,95904.67
2022-09-14T13:07:15.359Z,95902.90
2022-09-14T13:09:53.039Z,95902.27
2022-09-14T13:12:28.983Z,95898.59
2022-09-14T13:15:00.049Z,95895.06
2022-09-14T13:17:28.680Z,95888.63
2022-09-14T13:20:01.427Z,95883.34
2022-09-14T13:22:32.036Z,95886.16
2022-09-14T13:25:01.767Z,95883.98
2022-09-14T13:27:31.771Z,95881.20
2022-09-14T13:30:01.793Z,95884.23
2022-09-14T13:32:31.216Z,95882.70
2022-09-14T13:34:59.670Z,95877.00
2022-09-14T13:37:27.970Z,95875.75
2022-09-14T13:39:57.703Z,95879.87
2022-09-14T13:42:26.396Z,95878.14
2022-09-14T13:44:54.816Z,95872.31
2022-09-14T13:47:24.536Z,95867.39
2022-09-14T13:49:54.108Z,95865.64
2022-09-14T13:52:22.297Z,95864.84
2022-09-14T13:54:51.610Z,95860.74
2022-09-14T13:57:21.287Z,95860.42
2022-09-14T14:00:09.088Z,95862.91
2022-09-14T14:02:39.439Z,95860.52
2022-09-14T14:05:20.070Z,95855.49
2022-09-14T14:07:48.412Z,95848.00
2022-09-14T14:10:25.418Z,95847.61
2022-09-14T14:12:53.662Z,95845.56
2022-09-14T14:15:24.960Z,95839.97
2022-09-14T14:17:53.947Z,95837.71
2022-09-14T14:20:34.100Z,95835.95
2022-09-14T14:23:08.655Z,95830.45
2022-09-14T14:25:42.159Z,95822.20
2022-09-14T14:28:24.319Z,95814.60
2022-09-14T14:30:53.554Z,95814.60
2022-09-14T14:33:22.875Z,95806.76
2022-09-14T14:35:53.073Z,95801.95
2022-09-14T14:38:23.574Z,95801.42
2022-09-14T14:40:55.350Z,95798.14
2022-09-14T14:43:25.584Z,95799.99
2022-09-14T14:45:58.823Z,95803.80
2022-09-14T14:48:27.994Z,95812.34
2022-09-14T14:50:56.549Z,95809.15
2022-09-14T14:53:25.690Z,95806.63
2022-09-14T14:55:53.969Z,95799.68
2022-09-14T14:58:22.735Z,95790.73
2022-09-14T15:00:52.074Z,95787.38
2022-09-14T15:03:20.510Z,95778.42
2022-09-14T15:05:49.338Z,95776.70
2022-09-14T15:08:20.204Z,95775.33
2022-09-14T15:10:49.639Z,95769.05
2022-09-14T15:13:17.836Z,95767.15
2022-09-14T15:15:46.081Z,95768.41
2022-09-14T15:18:14.280Z,95770.23
2022-09-14T15:20:42.495Z,95768.27
2022-09-14T15:23:12.438Z,95767.38
2022-09-14T15:25:40.690Z,95760.99
2022-09-14T15:28:08.888Z,95757.45
2022-09-14T15:30:37.702Z,95759.43
2022-09-14T15:33:05.898Z,95757.61
2022-09-14T15:35:34.103Z,95764.90
2022-09-14T15:38:02.371Z,95768.73
2022-09-14T15:40:30.651Z,95770.71
2022-09-14T15:43:00.162Z,95766.72
2022-09-14T15:45:28.518Z,95762.92
2022-09-14T15:47:57.080Z,95768.52
2022-09-14T15:50:25.849Z,95770.42
2022-09-14T15:52:54.023Z,95770.86
2022-09-14T15:55:22.424Z,95773.64
2022-09-14T15:57:50.705Z,95774.20
2022-09-14T16:00:19.752Z,95771.73
2022-09-14T16:02:49.491Z,95769.41
2022-09-14T16:05:19.215Z,95767.52
2022-09-14T16:07:47.993Z,95763.42
2022-09-14T16:10:16.208Z,95758.94
2022-09-14T16:12:44.442Z,95759.61
2022-09-14T16:15:12.701Z,95754.52
2022-09-14T16:17:40.927Z,95757.66
2022-09-14T16:20:10.628Z,95753.10
2022-09-14T16:22:38.863Z,95749.49
2022-09-14T16:25:07.114Z,95751.17
2022-09-14T16:27:35.632Z,95753.66
2022-09-14T16:30:03.992Z,95751.52
2022-09-14T16:32:32.216Z,95751.27
2022-09-14T16:35:02.727Z,95752.67
2022-09-14T16:37:33.097Z,95751.22
2022-09-14T16:40:01.584Z,95745.88
2022-09-14T16:42:29.921Z,95746.56
2022-09-14T16:44:58.130Z,95745.88
2022-09-14T16:47:26.368Z,95743.96
2022-09-14T16:49:54.965Z,95743.75
2022-09-14T16:52:23.185Z,95742.65
2022-09-14T16:54:55.859Z,95737.04
2022-09-14T16:57:27.045Z,95737.90
2022-09-14T16:59:55.294Z,95738.87
2022-09-14T17:02:23.665Z,95737.80
2022-09-14T17:04:52.019Z,95733.28
2022-09-14T17:07:22.555Z,95730.29
2022-09-14T17:09:50.794Z,95730.16
2022-09-14T17:12:19.022Z,95732.45
2022-09-14T17:14:48.108Z,95726.34
2022-09-14T17:17:16.368Z,95722.65
2022-09-14T17:19:44.606Z,95722.60
2022-09-14T17:22:14.356Z,95717.11
2022-09-14T17:24:42.581Z,95707.83
2022-09-14T17:27:11.212Z,95708.73
2022-09-14T17:29:41.015Z,95708.21
2022-09-14T17:32:14.016Z,95702.87
2022-09-14T17:34:43.278Z,95695.94
2022-09-14T17:37:11.613Z,95702.02
2022-09-14T17:39:39.767Z,95699.66
2022-09-14T17:42:08.022Z,95696.70
2022-09-14T17:44:37.022Z,95699.83
2022-09-14T17:47:05.397Z,95704.20
2022-09-14T17:49:33.638Z,95699.24
2022-09-14T17:52:03.190Z,95702.95
2022-09-14T17:54:31.550Z,95696.92
2022-09-14T17:56:59.783Z,95698.73
2022-09-14T17:59:28.042Z,95697.30
2022-09-14T18:01:56.291Z,95697.80
2022-09-14T18:04:24.521Z,95696.25
2022-09-14T18:06:52.746Z,95693.34
2022-09-14T18:09:21.982Z,95690.74
2022-09-14T18:11:51.295Z,95688.55
2022-09-14T18:14:20.028Z,95685.44
2022-09-14T18:16:48.286Z,95673.30
2022-09-14T18:19:16.679Z,95667.80
2022-09-14T18:21:48.909Z,95663.28
2022-09-14T18:24:20.344Z,95656.92
2022-09-14T18:26:48.938Z,95653.89
2022-09-14T18:29:18.620Z,95647.64
2022-09-14T18:31:47.369Z,95650.81
2022-09-14T18:34:16.029Z,95654.80
2022-09-14T18:36:44.256Z,95656.56
2022-09-14T18:39:13.170Z,95657.35
2022-09-14T18:41:41.619Z,95649.94
2022-09-14T18:44:10.078Z,95643.96
2022-09-14T18:46:40.523Z,95636.50
2022-09-14T18:49:09.305Z,95632.05
2022-09-14T18:51:37.549Z,95625.20
2022-09-14T18:54:07.428Z,95626.26
2022-09-14T18:56:36.450Z,95626.92
2022-09-14T18:59:05.814Z,95625.04
2022-09-14T19:01:35.029Z,95629.20
2022-09-14T19:04:04.700Z,95628.52
2022-09-14T19:06:33.272Z,95619.98
2022-09-14T19:09:01.591Z,95619.28
2022-09-14T19:11:30.794Z,95623.30
2022-09-14T19:14:05.234Z,95625.23
2022-09-14T19:16:33.817Z,95624.17
2022-09-14T19:19:02.007Z,95615.38
2022-09-14T19:21:31.470Z,95611.72
2022-09-14T19:24:01.098Z,95610.92
2022-09-14T19:26:30.670Z,95609.09
2022-09-14T19:29:00.242Z,95609.77
2022-09-14T19:31:30.882Z,95607.63
2022-09-14T19:34:00.029Z,95606.58
2022-09-14T19:36:29.242Z,95611.39
2022-09-14T19:39:01.825Z,95611.64
2022-09-14T19:41:31.006Z,95606.16
2022-09-14T19:43:59.835Z,95600.11
2022-09-14T19:46:28.449Z,95592.17
2022-09-14T19:48:57.073Z,95582.91
2022-09-14T19:51:29.881Z,95580.86
2022-09-14T19:53:59.691Z,95581.41
2022-09-14T19:56:29.203Z,95577.01
2022-09-14T19:58:58.792Z,95570.59
2022-09-14T20:01:28.120Z,95569.98
2022-09-14T20:03:56.818Z,95572.78
2022-09-14T20:06:29.154Z,95569.94
2022-09-14T20:08:59.357Z,95567.25
2022-09-14T20:11:29.262Z,95570.33
2022-09-14T20:13:59.368Z,95572.30
2022-09-14T20:16:29.265Z,95574.08
2022-09-14T20:18:59.285Z,95576.66
2022-09-14T20:21:28.234Z,95579.59
2022-09-14T20:24:15.699Z,95576.35
2022-09-14T20:26:46.865Z,95580.27
2022-09-14T20:29:15.646Z,95578.50
2022-09-14T20:31:44.238Z,95580.64
2022-09-14T20:34:12.958Z,95584.91
2022-09-14T20:36:41.576Z,95577.19
2022-09-14T20:39:09.868Z,95570.40
2022-09-14T20:41:38.301Z,95576.13
2022-09-14T20:44:07.206Z,95579.27
2022-09-14T20:46:39.309Z,95577.48
2022-09-14T20:49:10.526Z,95571.36
2022-09-14T20:51:39.295Z,95568.33
2022-09-14T20:54:08.367Z,95572.88
2022-09-14T20:56:36.979Z,95568.61
2022-09-14T20:59:07.403Z,95572.86
2022-09-14T21:01:36.590Z,95570.31
2022-09-14T21:04:09.227Z,95570.19
2022-09-14T21:06:38.582Z,95570.80
2022-09-14T21:09:07.677Z,95575.16
2022-09-14T21:11:36.402Z,95578.53
2022-09-14T21:14:04.679Z,95569.58
2022-09-14T21:16:37.096Z,95571.45
2022-09-14T21:19:06.981Z,95573.80
2022-09-14T21:21:35.360Z,95574.59
2022-09-14T21:24:04.940Z,95570.41
2022-09-14T21:26:40.504Z,95571.53
2022-09-14T21:29:14.380Z,95574.70
2022-09-14T21:31:42.956Z,95573.66
2022-09-14T21:34:12.075Z,95572.19
2022-09-14T21:36:41.788Z,95570.80
2022-09-14T21:39:12.286Z,95567.50
2022-09-14T21:41:41.129Z,95564.04
2022-09-14T21:44:09.386Z,95578.66
2022-09-14T21:46:37.661Z,95578.95
2022-09-14T21:49:06.130Z,95583.25
2022-09-14T21:51:36.290Z,95579.67
2022-09-14T21:54:06.346Z,95578.23
2022-09-14T21:56:37.107Z,95577.92
2022-09-14T21:59:07.552Z,95582.74
2022-09-14T22:01:35.736Z,95587.36
2022-09-14T22:04:04.619Z,95581.98
2022-09-14T22:06:33.328Z,95584.36
2022-09-14T22:09:01.681Z,95585.55
2022-09-14T22:11:34.774Z,95592.22
2022-09-14T22:14:05.299Z,95585.63
2022-09-14T22:16:35.013Z,95588.27
2022-09-14T22:19:04.810Z,95589.67
2022-09-14T22:21:34.428Z,95594.02
2022-09-14T22:24:04.373Z,95594.65
2022-09-14T22:26:34.165Z,95600.80
2022-09-14T22:29:02.875Z,95599.27
2022-09-14T22:31:32.121Z,95589.52
2022-09-14T22:34:00.459Z,95597.10
2022-09-14T22:36:29.254Z,95588.18
2022-09-14T22:38:58.930Z,95582.23
2022-09-14T22:41:28.644Z,95572.85
2022-09-14T22:43:57.288Z,95575.23
2022-09-14T22:46:25.827Z,95567.98
2022-09-14T22:48:54.182Z,95576.58
2022-09-14T22:51:23.688Z,95581.65
2022-09-14T22:53:52.282Z,95581.83
2022-09-14T22:56:22.259Z,95582.39
2022-09-14T22:58:50.834Z,95584.10
2022-09-14T23:01:23.674Z,95578.29
2022-09-14T23:03:57.368Z,95577.43
2022-09-14T23:06:26.941Z,95578.57
2022-09-14T23:08:55.463Z,95576.45
2022-09-14T23:11:24.291Z,95569.96
2022-09-14T23:13:52.518Z,95574.66
2022-09-14T23:16:22.183Z,95573.19
2022-09-14T23:18:51.568Z,95570.02
2022-09-14T23:21:20.055Z,95575.11
2022-09-14T23:23:56.272Z,95573.96
2022-09-14T23:26:24.565Z,95574.63
2022-09-14T23:28:57.333Z,95574.52
2022-09-14T23:31:26.423Z,95570.92
2022-09-14T23:33:55.891Z,95572.09
2022-09-14T23:36:24.993Z,95569.64
2022-09-14T23:38:53.222Z,95566.60
2022-09-14T23:41:22.369Z,95568.59
2022-09-14T23:43:51.289Z,95570.46
2022-09-14T23:46:20.324Z,95574.27
2022-09-14T23:48:49.256Z,95576.88
2022-09-14T23:51:17.919Z,95585.61
2022-09-14T23:53:46.255Z,95585.80
2022-09-14T23:56:14.586Z,95582.88
2022-09-14T23:58:43.546Z,95582.32
